Time;durP1;ratioP1;P1;durP2;ratioP2;P2;SDS_P1;SDS_P2;PMS_P1;PMS_P2;Temp;Humidity;BMP_temperature;BMP_pressure;BME280_temperature;BME280_humidity;BME280_pressure;Samples;Min_cycle;Max_cycle;Signal;HPM_P1;HPM_P2
2021/06/29 00:00:07;;;;;;;6.18;5.30;;;18.50;99.90;;;;;;4954738;28;20213;-42
2021/06/29 00:02:35;;;;;;;5.55;5.05;;;18.50;99.90;;;;;;4954928;28;20294;-44
2021/06/29 00:05:03;;;;;;;5.50;5.03;;;18.60;99.90;;;;;;4954774;28;20302;-43
2021/06/29 00:07:31;;;;;;;5.95;5.30;;;18.60;99.90;;;;;;4954035;28;20298;-47
2021/06/29 00:09:59;;;;;;;6.10;5.47;;;18.60;99.90;;;;;;4954501;28;20302;-42
2021/06/29 00:12:27;;;;;;;4.95;4.57;;;18.60;99.90;;;;;;4954387;28;20217;-41
2021/06/29 00:14:56;;;;;;;5.68;5.15;;;18.70;99.90;;;;;;4954659;28;20234;-43
2021/06/29 00:17:24;;;;;;;6.10;4.72;;;18.70;99.90;;;;;;4954511;28;20254;-41
2021/06/29 00:19:52;;;;;;;5.35;4.55;;;18.70;99.90;;;;;;4954481;28;20667;-43
2021/06/29 00:22:20;;;;;;;6.63;4.35;;;18.70;99.90;;;;;;4954369;28;20239;-43
2021/06/29 00:24:48;;;;;;;7.53;5.15;;;18.70;99.90;;;;;;4954663;28;20247;-44
2021/06/29 00:27:15;;;;;;;6.03;5.50;;;18.70;99.90;;;;;;4954509;28;20298;-44
2021/06/29 00:29:43;;;;;;;4.97;4.60;;;18.70;99.90;;;;;;4954388;28;20302;-43
2021/06/29 00:32:13;;;;;;;5.93;5.43;;;18.70;99.90;;;;;;4954345;28;20233;-44
2021/06/29 00:34:41;;;;;;;5.65;5.28;;;18.70;99.90;;;;;;4954151;28;20231;-42
2021/06/29 00:37:09;;;;;;;5.47;4.97;;;18.60;99.90;;;;;;4954419;28;20214;-46
2021/06/29 00:39:36;;;;;;;5.78;5.28;;;18.60;99.90;;;;;;4954353;28;20309;-43
2021/06/29 00:42:05;;;;;;;5.07;4.60;;;18.60;99.90;;;;;;4954225;28;20222;-42
2021/06/29 00:44:33;;;;;;;5.30;4.82;;;18.60;99.90;;;;;;4954143;28;20368;-43
2021/06/29 00:47:01;;;;;;;5.63;5.10;;;18.60;99.90;;;;;;4954017;28;20293;-43
2021/06/29 00:49:30;;;;;;;5.68;5.18;;;18.60;99.90;;;;;;4953368;28;20247;-43
2021/06/29 00:51:58;;;;;;;7.35;5.28;;;18.50;99.90;;;;;;4954467;28;20226;-42
2021/06/29 00:54:26;;;;;;;5.50;5.00;;;18.50;99.90;;;;;;4954203;28;20342;-44
2021/06/29 00:56:54;;;;;;;5.20;4.75;;;18.50;99.90;;;;;;4953756;28;20742;-46
2021/06/29 00:59:22;;;;;;;8.20;5.72;;;18.50;99.90;;;;;;4953935;28;20249;-43
2021/06/29 01:01:50;;;;;;;5.28;4.80;;;18.50;99.90;;;;;;4954250;28;20317;-45
2021/06/29 01:04:18;;;;;;;6.68;5.60;;;18.50;99.90;;;;;;4954137;28;20204;-45
2021/06/29 01:06:48;;;;;;;5.35;4.95;;;18.50;99.90;;;;;;4954052;28;20219;-45
2021/06/29 01:09:18;;;;;;;5.70;5.30;;;18.50;99.90;;;;;;4953785;28;20261;-45
2021/06/29 01:11:47;;;;;;;5.40;4.90;;;18.50;99.90;;;;;;4953802;28;20215;-43
2021/06/29 01:14:18;;;;;;;5.22;4.57;;;18.40;99.90;;;;;;4953675;28;20227;-38
2021/06/29 01:16:46;;;;;;;4.90;4.30;;;18.40;99.90;;;;;;4953743;28;20671;-41
2021/06/29 01:19:18;;;;;;;5.20;4.72;;;18.40;99.90;;;;;;4953656;28;20211;-44
2021/06/29 01:21:50;;;;;;;5.55;5.03;;;18.30;99.90;;;;;;4953811;28;20262;-45
2021/06/29 01:24:28;;;;;;;4.50;4.20;;;18.30;99.90;;;;;;4953618;28;20555;-42
2021/06/29 01:27:11;;;;;;;3.95;3.65;;;18.30;99.90;;;;;;4953586;28;20230;-41
2021/06/29 01:29:47;;;;;;;4.55;4.15;;;18.30;99.90;;;;;;4953935;28;20309;-41
2021/06/29 01:32:16;;;;;;;4.65;4.20;;;18.30;99.90;;;;;;4953664;28;20595;-42
2021/06/29 01:34:44;;;;;;;4.47;4.07;;;18.30;99.90;;;;;;4953571;28;20318;-43
2021/06/29 01:37:14;;;;;;;4.78;4.25;;;18.30;99.90;;;;;;4953634;28;20234;-44
2021/06/29 01:39:51;;;;;;;4.72;4.32;;;18.30;99.90;;;;;;4953613;28;20250;-45
2021/06/29 01:42:19;;;;;;;4.35;3.95;;;18.30;99.90;;;;;;4953594;28;20221;-47
2021/06/29 01:44:47;;;;;;;4.75;4.25;;;18.30;99.90;;;;;;4953755;28;20334;-42
2021/06/29 01:47:24;;;;;;;4.10;3.70;;;18.30;99.90;;;;;;4953672;28;20222;-42
2021/06/29 01:49:52;;;;;;;3.90;3.60;;;18.30;99.90;;;;;;4953359;28;20615;-45
2021/06/29 01:52:21;;;;;;;4.93;3.97;;;18.30;99.90;;;;;;4953706;28;20216;-48
2021/06/29 01:54:49;;;;;;;5.70;4.25;;;18.30;99.90;;;;;;4953536;28;20317;-44
2021/06/29 01:57:19;;;;;;;4.45;4.05;;;18.30;99.90;;;;;;4953850;28;20220;-46
2021/06/29 01:59:48;;;;;;;4.20;3.90;;;18.30;99.90;;;;;;4953298;28;20338;-43
2021/06/29 02:02:16;;;;;;;5.13;4.32;;;18.20;99.90;;;;;;4955618;28;20211;-42
2021/06/29 02:04:44;;;;;;;4.50;4.10;;;18.30;99.90;;;;;;4957186;28;20254;-47
2021/06/29 02:07:12;;;;;;;4.20;3.72;;;18.20;99.90;;;;;;4957031;28;20218;-44
2021/06/29 02:09:42;;;;;;;4.30;4.00;;;18.20;99.90;;;;;;4957069;28;20302;-43
2021/06/29 02:12:10;;;;;;;4.80;4.40;;;18.20;99.90;;;;;;4956967;28;20221;-46
2021/06/29 02:14:38;;;;;;;4.07;3.67;;;18.20;99.90;;;;;;4956838;28;20234;-42
2021/06/29 02:17:06;;;;;;;5.30;4.40;;;18.20;99.90;;;;;;4957052;28;20298;-45
2021/06/29 02:19:34;;;;;;;4.00;3.70;;;18.10;99.90;;;;;;4956946;28;20231;-44
2021/06/29 02:22:02;;;;;;;4.07;3.75;;;18.10;99.90;;;;;;4956778;28;20337;-43
2021/06/29 02:24:30;;;;;;;3.70;3.40;;;18.10;99.90;;;;;;4957177;28;20242;-45
2021/06/29 02:26:59;;;;;;;8.35;3.60;;;18.10;99.90;;;;;;4956618;28;20549;-45
2021/06/29 02:29:27;;;;;;;3.70;3.35;;;18.10;99.90;;;;;;4956597;28;20314;-44
2021/06/29 02:31:55;;;;;;;3.63;3.33;;;18.10;99.90;;;;;;4956716;28;20302;-43
2021/06/29 02:34:23;;;;;;;5.85;3.88;;;18.10;99.90;;;;;;4956505;28;20781;-45
2021/06/29 02:36:51;;;;;;;4.28;3.85;;;18.10;99.90;;;;;;4956502;28;20211;-45
2021/06/29 02:39:19;;;;;;;3.92;3.63;;;18.10;99.90;;;;;;4956551;28;20625;-45
2021/06/29 02:41:47;;;;;;;6.63;3.67;;;18.10;99.90;;;;;;4956283;28;20222;-47
2021/06/29 02:44:16;;;;;;;4.28;3.97;;;18.10;99.90;;;;;;4956226;28;20766;-45
2021/06/29 02:46:44;;;;;;;3.63;3.33;;;18.10;99.90;;;;;;4956536;28;20306;-47
2021/06/29 02:49:12;;;;;;;4.15;3.85;;;18.10;99.90;;;;;;4956308;28;20242;-45
2021/06/29 02:51:40;;;;;;;3.97;3.67;;;18.10;99.90;;;;;;4956363;28;20307;-46
2021/06/29 02:54:08;;;;;;;4.15;3.85;;;18.00;99.90;;;;;;4956396;28;20211;-46
2021/06/29 02:56:39;;;;;;;4.97;4.57;;;18.00;99.90;;;;;;4956613;28;20253;-43
2021/06/29 02:59:09;;;;;;;3.95;3.67;;;18.00;99.90;;;;;;4956412;28;20246;-46
2021/06/29 03:01:39;;;;;;;4.35;4.05;;;17.90;99.90;;;;;;4956285;28;20219;-43
2021/06/29 03:04:07;;;;;;;4.60;4.18;;;17.90;99.90;;;;;;4956202;28;20223;-44
2021/06/29 03:06:35;;;;;;;4.45;4.13;;;17.90;99.90;;;;;;4955985;28;20746;-42
2021/06/29 03:09:06;;;;;;;4.93;4.32;;;17.90;99.90;;;;;;4955516;28;20211;-43
2021/06/29 03:11:34;;;;;;;4.55;4.10;;;17.90;99.90;;;;;;4956046;28;20298;-41
2021/06/29 03:14:03;;;;;;;4.35;3.95;;;17.90;99.90;;;;;;4954936;28;20242;-41
2021/06/29 03:16:31;;;;;;;4.95;4.35;;;17.90;99.90;;;;;;4955696;28;20322;-43
2021/06/29 03:19:00;;;;;;;4.60;4.30;;;17.90;99.90;;;;;;4955753;28;20218;-42
2021/06/29 03:21:28;;;;;;;5.30;4.25;;;17.90;99.90;;;;;;4955609;28;20230;-41
2021/06/29 03:23:56;;;;;;;4.38;4.00;;;17.90;99.90;;;;;;4955908;28;20310;-42
2021/06/29 03:26:24;;;;;;;4.47;4.07;;;17.90;99.90;;;;;;4955612;28;20750;-44
2021/06/29 03:28:53;;;;;;;5.07;4.57;;;17.90;99.90;;;;;;4955385;28;20225;-45
2021/06/29 03:31:20;;;;;;;6.57;5.75;;;17.90;99.90;;;;;;4955380;28;20674;-44
2021/06/29 03:33:49;;;;;;;4.40;4.00;;;18.00;99.90;;;;;;4955123;28;20663;-45
2021/06/29 03:36:18;;;;;;;4.55;4.15;;;18.00;99.90;;;;;;4955311;28;20318;-43
2021/06/29 03:38:46;;;;;;;4.82;3.92;;;18.00;99.90;;;;;;4955595;28;20637;-42
2021/06/29 03:41:14;;;;;;;4.32;3.83;;;18.00;99.90;;;;;;4955233;28;20258;-42
2021/06/29 03:43:42;;;;;;;4.57;4.25;;;18.00;99.90;;;;;;4955332;28;20257;-44
2021/06/29 03:46:10;;;;;;;5.32;4.78;;;18.00;99.90;;;;;;4955064;28;20242;-46
2021/06/29 03:48:38;;;;;;;6.15;5.70;;;18.00;99.90;;;;;;4955339;28;20274;-42
2021/06/29 03:51:07;;;;;;;5.15;4.45;;;18.10;99.90;;;;;;4955060;28;20305;-43
2021/06/29 03:53:36;;;;;;;5.18;4.60;;;18.10;99.90;;;;;;4955161;28;20254;-45
2021/06/29 03:56:04;;;;;;;4.57;4.20;;;18.20;99.90;;;;;;4954968;28;20322;-45
2021/06/29 03:58:32;;;;;;;4.18;3.88;;;18.20;99.90;;;;;;4954766;28;20243;-48
2021/06/29 04:01:01;;;;;;;7.78;5.50;;;18.20;99.90;;;;;;4954793;28;20691;-44
2021/06/29 04:03:29;;;;;;;5.70;5.18;;;18.20;99.90;;;;;;4954683;28;20218;-43
2021/06/29 04:05:57;;;;;;;9.73;8.82;;;18.20;99.90;;;;;;4954234;28;20632;-43
2021/06/29 04:08:25;;;;;;;4.82;4.53;;;18.20;99.90;;;;;;4954349;28;20211;-42
2021/06/29 04:10:54;;;;;;;4.72;4.22;;;18.30;99.90;;;;;;4954653;28;20645;-44
2021/06/29 04:13:22;;;;;;;4.22;3.92;;;18.30;99.90;;;;;;4954498;28;20302;-41
2021/06/29 04:15:50;;;;;;;4.82;4.28;;;18.30;99.90;;;;;;4954635;28;20227;-42
2021/06/29 04:18:19;;;;;;;5.68;4.03;;;18.40;99.90;;;;;;4954452;28;20647;-41
2021/06/29 04:20:47;;;;;;;5.45;4.95;;;18.40;99.90;;;;;;4954115;28;20701;-45
2021/06/29 04:23:15;;;;;;;4.40;4.10;;;18.40;99.90;;;;;;4953983;28;20314;-50
2021/06/29 04:25:43;;;;;;;5.50;3.88;;;18.40;99.90;;;;;;4954163;28;20211;-48
2021/06/29 04:28:12;;;;;;;5.10;4.70;;;18.40;99.90;;;;;;4954288;28;20262;-45
2021/06/29 04:30:40;;;;;;;4.20;3.80;;;18.40;99.90;;;;;;4954515;28;20207;-43
2021/06/29 04:33:08;;;;;;;5.13;4.65;;;18.40;99.90;;;;;;4954491;28;20773;-46
2021/06/29 04:35:36;;;;;;;5.32;4.82;;;18.30;99.90;;;;;;4954506;28;20231;-49
2021/06/29 04:38:04;;;;;;;6.70;4.50;;;18.30;99.90;;;;;;4954477;28;20230;-45
2021/06/29 04:40:32;;;;;;;5.38;4.82;;;18.30;99.90;;;;;;4954332;28;20559;-46
2021/06/29 04:43:00;;;;;;;5.05;4.65;;;18.30;99.90;;;;;;4954347;28;20746;-46
2021/06/29 04:45:29;;;;;;;5.47;4.97;;;18.30;99.90;;;;;;4954581;28;20257;-43
2021/06/29 04:47:57;;;;;;;4.95;4.55;;;18.30;99.90;;;;;;4954675;28;20215;-46
2021/06/29 04:50:25;;;;;;;4.55;4.25;;;18.30;99.90;;;;;;4954960;28;20742;-44
2021/06/29 04:52:53;;;;;;;4.50;4.20;;;18.30;99.90;;;;;;4954561;28;20318;-44
2021/06/29 04:55:21;;;;;;;4.55;4.15;;;18.30;99.90;;;;;;4954266;28;20207;-45
2021/06/29 04:57:49;;;;;;;5.07;4.68;;;18.20;99.90;;;;;;4954219;28;20244;-44
2021/06/29 05:00:19;;;;;;;4.72;4.43;;;18.20;99.90;;;;;;4954659;28;20306;-44
2021/06/29 05:02:49;;;;;;;5.10;4.60;;;18.20;99.90;;;;;;4954190;28;20332;-43
2021/06/29 05:05:20;;;;;;;5.05;4.75;;;18.20;99.90;;;;;;4954035;28;20218;-46
2021/06/29 05:07:48;;;;;;;5.22;4.80;;;18.20;99.90;;;;;;4954230;28;20219;-45
2021/06/29 05:10:17;;;;;;;4.80;4.40;;;18.20;99.90;;;;;;4954001;28;20638;-43
2021/06/29 05:12:48;;;;;;;5.00;4.60;;;18.20;99.90;;;;;;4954710;28;20212;-44
2021/06/29 05:15:17;;;;;;;5.68;4.32;;;18.20;99.90;;;;;;4954702;28;20244;-44
2021/06/29 05:17:45;;;;;;;5.00;4.60;;;18.30;99.90;;;;;;4954153;28;20211;-45
2021/06/29 05:20:15;;;;;;;5.43;5.03;;;18.30;99.90;;;;;;4954117;28;20215;-43
2021/06/29 05:22:43;;;;;;;4.93;4.28;;;18.30;99.90;;;;;;4954073;28;20302;-49
2021/06/29 05:25:11;;;;;;;4.28;3.97;;;18.30;99.90;;;;;;4954484;28;20217;-42
2021/06/29 05:27:40;;;;;;;5.05;4.50;;;18.30;99.90;;;;;;4953989;28;20685;-43
2021/06/29 05:30:10;;;;;;;4.80;3.92;;;18.40;99.90;;;;;;4953994;28;20294;-42
2021/06/29 05:32:38;;;;;;;4.18;3.88;;;18.40;99.90;;;;;;4954511;28;20270;-41
2021/06/29 05:35:07;;;;;;;5.55;4.25;;;18.40;99.90;;;;;;4954028;28;20215;-42
2021/06/29 05:37:37;;;;;;;5.03;4.63;;;18.50;99.90;;;;;;4956958;28;20241;-41
2021/06/29 05:40:06;;;;;;;4.90;4.47;;;18.50;99.90;;;;;;4957525;28;20219;-46
2021/06/29 05:42:34;;;;;;;5.60;4.55;;;18.60;99.90;;;;;;4957673;28;20298;-44
2021/06/29 05:45:02;;;;;;;4.65;4.32;;;18.70;99.90;;;;;;4957433;28;20310;-45
2021/06/29 05:47:33;;;;;;;3.60;3.30;;;18.70;99.90;;;;;;4957578;28;20223;-44
2021/06/29 05:50:01;;;;;;;4.50;4.20;;;18.80;99.90;;;;;;4957588;28;20290;-44
2021/06/29 05:52:29;;;;;;;4.00;3.65;;;18.80;99.90;;;;;;4957390;28;20298;-44
2021/06/29 05:54:58;;;;;;;3.67;3.38;;;18.80;99.90;;;;;;4957047;28;20553;-44
2021/06/29 05:57:26;;;;;;;5.13;3.72;;;18.90;99.90;;;;;;4957087;28;20236;-44
2021/06/29 05:59:54;;;;;;;3.70;3.40;;;19.00;99.90;;;;;;4938241;29;20247;-50
2021/06/29 06:02:22;;;;;;;6.07;3.00;;;19.10;99.90;;;;;;4938198;28;20759;-45
2021/06/29 06:04:50;;;;;;;4.30;3.28;;;19.10;99.90;;;;;;4938225;28;20299;-42
2021/06/29 06:07:18;;;;;;;4.07;3.67;;;19.20;99.90;;;;;;4937989;29;20749;-44
2021/06/29 06:09:46;;;;;;;2.97;2.67;;;19.30;99.90;;;;;;4937670;28;20299;-43
2021/06/29 06:12:16;;;;;;;3.80;3.50;;;19.40;99.90;;;;;;4937391;28;20258;-42
2021/06/29 06:14:44;;;;;;;4.25;3.50;;;19.50;99.90;;;;;;4937892;28;20242;-43
2021/06/29 06:17:12;;;;;;;3.25;2.95;;;19.60;99.90;;;;;;4937570;28;20231;-42
2021/06/29 06:19:40;;;;;;;3.20;2.95;;;19.60;99.90;;;;;;4937409;28;20586;-44
2021/06/29 06:22:08;;;;;;;2.70;2.50;;;19.60;99.90;;;;;;4937492;28;20307;-46
2021/06/29 06:24:36;;;;;;;7.05;3.47;;;19.60;99.90;;;;;;4937319;28;20295;-44
2021/06/29 06:27:04;;;;;;;3.10;2.90;;;19.50;99.90;;;;;;4937568;28;20255;-46
2021/06/29 06:29:33;;;;;;;2.72;2.53;;;19.40;99.90;;;;;;4937643;28;20307;-47
2021/06/29 06:32:01;;;;;;;3.03;2.72;;;19.30;99.90;;;;;;4937165;28;20208;-48
2021/06/29 06:34:29;;;;;;;3.17;2.90;;;19.30;99.90;;;;;;4937152;28;20212;-49
2021/06/29 06:36:57;;;;;;;2.95;2.67;;;19.20;99.90;;;;;;4937036;28;20238;-45
2021/06/29 06:39:26;;;;;;;2.55;2.35;;;19.30;99.90;;;;;;4937524;28;20214;-49
2021/06/29 06:41:56;;;;;;;3.92;2.47;;;19.30;99.90;;;;;;4938336;28;20242;-47
2021/06/29 06:44:24;;;;;;;3.40;3.10;;;19.60;99.90;;;;;;4937275;28;20296;-48
2021/06/29 06:46:54;;;;;;;8.55;3.45;;;19.90;99.90;;;;;;4936962;28;20627;-46
2021/06/29 06:49:22;;;;;;;3.90;2.65;;;20.20;99.90;;;;;;4936859;28;20240;-45
2021/06/29 06:51:50;;;;;;;3.22;2.90;;;20.50;99.90;;;;;;4936925;28;20655;-42
2021/06/29 06:54:19;;;;;;;7.72;3.03;;;20.80;99.90;;;;;;4936944;29;20283;-50
2021/06/29 06:56:47;;;;;;;3.83;2.92;;;21.10;99.90;;;;;;4936834;28;20232;-47
2021/06/29 06:59:14;;;;;;;3.42;2.50;;;21.10;99.90;;;;;;4950516;29;20290;-49
2021/06/29 07:01:44;;;;;;;4.28;2.97;;;21.10;99.90;;;;;;4955920;28;20559;-52
2021/06/29 07:04:16;;;;;;;2.60;2.40;;;21.10;99.90;;;;;;4955919;28;20551;-49
2021/06/29 07:06:44;;;;;;;14.70;3.85;;;21.10;99.90;;;;;;4955992;28;20207;-45
2021/06/29 07:09:11;;;;;;;3.00;2.70;;;21.00;99.90;;;;;;4955797;28;20243;-47
2021/06/29 07:11:48;;;;;;;79.63;8.40;;;21.00;99.90;;;;;;4955845;28;20215;-49
2021/06/29 07:14:18;;;;;;;11.75;3.85;;;21.10;99.90;;;;;;4955694;28;20305;-46
2021/06/29 07:16:46;;;;;;;2.63;2.42;;;21.20;99.90;;;;;;4955478;28;20409;-48
2021/06/29 07:19:15;;;;;;;2.95;2.75;;;21.30;99.90;;;;;;4955521;28;20242;-44
2021/06/29 07:21:43;;;;;;;2.75;2.55;;;21.50;99.90;;;;;;4955773;28;20588;-46
2021/06/29 07:24:11;;;;;;;2.95;2.75;;;21.50;99.90;;;;;;4955586;28;20302;-47
2021/06/29 07:26:39;;;;;;;2.90;2.70;;;21.50;99.90;;;;;;4955589;28;20246;-46
2021/06/29 07:29:06;;;;;;;14.07;3.58;;;21.50;99.90;;;;;;4955406;28;20611;-50
2021/06/29 07:31:35;;;;;;;3.22;2.63;;;21.50;99.90;;;;;;4955620;28;20294;-48
2021/06/29 07:34:04;;;;;;;3.67;2.30;;;21.50;99.90;;;;;;4955534;28;20234;-47
2021/06/29 07:36:33;;;;;;;2.38;2.17;;;21.50;99.90;;;;;;4955422;28;20215;-53
2021/06/29 07:39:01;;;;;;;6.97;2.85;;;21.40;99.90;;;;;;4955313;28;20302;-47
2021/06/29 07:41:29;;;;;;;9.07;3.05;;;21.30;99.90;;;;;;4955131;28;20306;-46
2021/06/29 07:43:57;;;;;;;2.80;2.50;;;21.20;99.90;;;;;;4955141;28;20654;-44
2021/06/29 07:46:25;;;;;;;4.00;2.60;;;21.30;99.90;;;;;;4955045;28;20327;-45
2021/06/29 07:48:54;;;;;;;2.58;2.28;;;21.40;99.90;;;;;;4955084;28;20210;-44
2021/06/29 07:51:22;;;;;;;2.05;1.90;;;21.60;99.90;;;;;;4954806;28;20262;-47
2021/06/29 07:53:51;;;;;;;255.32;25.60;;;21.70;99.90;;;;;;4954961;28;20215;-47
2021/06/29 07:56:19;;;;;;;2.58;2.15;;;21.80;99.90;;;;;;4954771;28;20294;-44
2021/06/29 07:58:47;;;;;;;2.50;1.83;;;21.90;99.90;;;;;;4954385;28;20604;-45
2021/06/29 08:01:16;;;;;;;2.45;2.20;;;22.10;99.90;;;;;;4954189;28;20261;-48
2021/06/29 08:03:45;;;;;;;1.77;1.65;;;22.20;99.90;;;;;;4954540;28;20671;-44
2021/06/29 08:06:13;;;;;;;1.95;1.85;;;22.30;99.90;;;;;;4954679;28;20246;-46
2021/06/29 08:08:42;;;;;;;7.07;2.70;;;22.30;99.90;;;;;;4954292;28;20270;-49
2021/06/29 08:11:13;;;;;;;21.25;4.20;;;22.40;99.90;;;;;;4954828;28;20290;-46
2021/06/29 08:13:41;;;;;;;1.80;1.70;;;22.60;99.90;;;;;;4954708;28;20211;-44
2021/06/29 08:16:10;;;;;;;5.40;2.20;;;22.70;99.90;;;;;;4954470;28;20207;-48
2021/06/29 08:18:39;;;;;;;1.58;1.48;;;22.80;99.90;;;;;;4954608;28;20245;-46
2021/06/29 08:21:08;;;;;;;4.40;2.25;;;22.80;99.90;;;;;;4954340;28;20294;-44
2021/06/29 08:23:36;;;;;;;2.47;2.00;;;22.90;99.90;;;;;;4954613;28;20629;-44
2021/06/29 08:26:05;;;;;;;5.80;2.15;;;23.00;99.90;;;;;;4954570;28;20623;-47
2021/06/29 08:28:36;;;;;;;3.80;2.13;;;23.20;99.90;;;;;;4954338;28;20223;-47
2021/06/29 08:31:05;;;;;;;3.15;1.73;;;23.40;99.90;;;;;;4954114;28;20654;-47
2021/06/29 08:33:34;;;;;;;2.30;1.90;;;23.60;99.90;;;;;;4954229;28;20234;-46
2021/06/29 08:36:03;;;;;;;2.95;1.40;;;23.70;99.90;;;;;;4954327;28;20215;-44
2021/06/29 08:38:31;;;;;;;1.80;1.70;;;23.70;99.90;;;;;;4954106;28;20227;-50
2021/06/29 08:40:59;;;;;;;3.30;1.70;;;23.70;99.60;;;;;;4954353;28;20653;-45
2021/06/29 08:43:27;;;;;;;4.43;2.05;;;23.80;99.30;;;;;;4953973;28;20761;-44
2021/06/29 08:45:57;;;;;;;2.35;1.10;;;23.80;99.00;;;;;;4954134;28;20221;-45
2021/06/29 08:48:25;;;;;;;22.42;5.88;;;23.90;98.80;;;;;;4954053;28;20747;-48
2021/06/29 08:50:53;;;;;;;2.58;1.80;;;24.00;98.40;;;;;;4954266;28;20235;-43
2021/06/29 08:53:21;;;;;;;5.00;1.85;;;24.10;98.10;;;;;;4954155;28;20302;-45
2021/06/29 08:55:51;;;;;;;3.10;2.00;;;24.20;98.00;;;;;;4953872;28;20319;-46
2021/06/29 08:58:22;;;;;;;7.47;2.10;;;24.20;97.80;;;;;;4953873;28;20338;-47
2021/06/29 09:00:52;;;;;;;2.63;1.98;;;24.20;97.90;;;;;;4953737;28;20294;-45
2021/06/29 09:03:22;;;;;;;1.40;1.30;;;24.30;97.90;;;;;;4953882;28;20649;-47
2021/06/29 09:05:52;;;;;;;3.33;1.50;;;24.40;97.30;;;;;;4953812;28;20274;-49
2021/06/29 09:08:21;;;;;;;1.52;1.20;;;24.50;96.70;;;;;;4954009;28;20353;-43
2021/06/29 09:11:09;;;;;;;7.70;1.90;;;24.50;95.80;;;;;;4954049;28;20376;-46
2021/06/29 09:13:38;;;;;;;2.47;1.50;;;24.60;95.20;;;;;;4957731;28;20217;-46
2021/06/29 09:16:07;;;;;;;2.03;1.58;;;24.60;95.20;;;;;;4957651;28;20212;-48
2021/06/29 09:18:40;;;;;;;4.20;1.35;;;24.60;94.90;;;;;;4957517;28;20330;-48
2021/06/29 09:21:10;;;;;;;1.60;1.10;;;24.70;94.30;;;;;;4957625;28;20215;-49
2021/06/29 09:23:41;;;;;;;2.72;1.30;;;24.70;94.10;;;;;;4957661;28;20300;-50
2021/06/29 09:26:10;;;;;;;7.28;1.77;;;24.70;93.90;;;;;;4957387;28;20556;-46
2021/06/29 09:28:40;;;;;;;4.85;1.10;;;24.80;93.70;;;;;;4957485;28;20211;-50
2021/06/29 09:31:10;;;;;;;2.55;1.27;;;24.80;93.60;;;;;;4957567;28;20211;-47
2021/06/29 09:33:41;;;;;;;1.15;0.95;;;24.90;93.60;;;;;;4957346;28;20306;-48
2021/06/29 09:36:13;;;;;;;1.42;1.08;;;24.90;93.50;;;;;;4957335;28;20236;-47
2021/06/29 09:38:43;;;;;;;3.35;1.48;;;25.00;93.40;;;;;;4957503;28;20253;-47
2021/06/29 09:41:14;;;;;;;1.40;1.20;;;25.00;93.30;;;;;;4957088;28;20606;-48
2021/06/29 09:43:44;;;;;;;21.05;5.13;;;25.10;93.20;;;;;;4957320;28;20235;-46
2021/06/29 09:46:14;;;;;;;3.33;1.55;;;25.20;93.10;;;;;;4957207;28;20214;-48
2021/06/29 09:48:46;;;;;;;0.85;0.85;;;25.30;93.00;;;;;;4957025;28;20214;-45
2021/06/29 09:51:35;;;;;;;3.50;1.20;;;25.30;92.50;;;;;;4956901;28;20306;-49
2021/06/29 09:54:06;;;;;;;1.70;1.35;;;25.30;92.50;;;;;;4956975;28;20315;-44
2021/06/29 09:56:38;;;;;;;1.90;1.58;;;25.40;92.20;;;;;;4957270;28;20223;-48
2021/06/29 09:59:12;;;;;;;1.52;0.98;;;25.50;91.70;;;;;;4956613;28;20347;-46
2021/06/29 10:01:40;;;;;;;1.45;1.33;;;25.60;90.60;;;;;;4957088;28;20675;-47
2021/06/29 10:04:10;;;;;;;2.08;1.23;;;25.70;90.40;;;;;;4957007;28;20246;-43
2021/06/29 10:06:39;;;;;;;2.03;1.40;;;25.80;90.30;;;;;;4957100;28;20234;-46
2021/06/29 10:09:09;;;;;;;1.40;1.30;;;26.00;90.30;;;;;;4956826;28;20289;-45
2021/06/29 10:11:38;;;;;;;1.35;1.25;;;26.20;90.20;;;;;;4956813;28;20402;-45
2021/06/29 10:14:08;;;;;;;2.88;1.13;;;26.30;90.30;;;;;;4957268;28;20302;-50
2021/06/29 10:16:39;;;;;;;10.95;2.05;;;26.40;90.10;;;;;;4956736;28;20230;-47
2021/06/29 10:19:26;;;;;;;1.60;1.50;;;26.30;90.00;;;;;;4956486;28;20318;-46
2021/06/29 10:21:56;;;;;;;1.27;1.17;;;26.20;89.30;;;;;;4956174;28;20218;-47
2021/06/29 10:24:27;;;;;;;2.90;1.42;;;26.10;89.40;;;;;;4956520;28;20286;-46
2021/06/29 10:26:56;;;;;;;2.58;1.42;;;26.20;89.40;;;;;;4956618;28;20270;-44
2021/06/29 10:29:26;;;;;;;2.85;1.35;;;26.30;89.30;;;;;;4956460;28;20239;-46
2021/06/29 10:31:58;;;;;;;2.03;1.40;;;26.40;88.90;;;;;;4956296;28;20623;-48
2021/06/29 10:34:27;;;;;;;7.20;2.20;;;26.40;88.20;;;;;;4956316;28;20270;-45
2021/06/29 10:36:57;;;;;;;2.22;1.30;;;26.50;88.50;;;;;;4956125;28;20214;-47
2021/06/29 10:39:31;;;;;;;3.15;1.63;;;26.50;88.60;;;;;;4956581;28;20343;-49
2021/06/29 10:42:01;;;;;;;5.00;2.72;;;26.50;88.90;;;;;;4956367;28;20306;-51
2021/06/29 10:44:35;;;;;;;3.10;2.00;;;26.50;89.30;;;;;;4956076;28;20622;-49
2021/06/29 10:47:18;;;;;;;2.97;1.40;;;26.40;89.60;;;;;;4955912;28;20302;-50
2021/06/29 10:49:49;;;;;;;40.95;5.90;;;26.50;89.80;;;;;;4956406;28;20323;-47
2021/06/29 10:52:37;;;;;;;2.03;1.70;;;26.50;89.20;;;;;;4956099;28;20599;-46
2021/06/29 10:55:07;;;;;;;7.38;1.45;;;26.50;86.70;;;;;;4955977;28;20211;-48
2021/06/29 10:57:40;;;;;;;32.92;3.97;;;26.60;86.80;;;;;;4955572;28;20267;-44
2021/06/29 11:00:26;;;;;;;1.63;1.52;;;26.60;85.20;;;;;;4955600;28;20597;-44
2021/06/29 11:03:02;;;;;;;21.80;2.92;;;26.60;82.90;;;;;;4955325;28;20654;-45
2021/06/29 11:05:34;;;;;;;3.65;1.42;;;26.60;83.30;;;;;;4955593;28;20210;-45
2021/06/29 11:08:06;;;;;;;4.50;1.63;;;26.60;83.20;;;;;;4955686;28;20215;-46
2021/06/29 11:10:36;;;;;;;4.35;1.40;;;26.60;83.10;;;;;;4955560;28;20208;-47
2021/06/29 11:13:07;;;;;;;3.00;1.23;;;26.60;83.20;;;;;;4955607;28;20278;-47
2021/06/29 11:15:52;;;;;;;2.17;1.15;;;26.60;82.70;;;;;;4955592;28;20215;-46
2021/06/29 11:18:44;;;;;;;11.27;1.80;;;26.60;82.00;;;;;;4955396;28;20218;-48
2021/06/29 11:21:36;;;;;;;23.67;3.78;;;26.70;81.90;;;;;;4955267;28;20218;-49
2021/06/29 11:24:40;;;;;;;2.08;1.45;;;26.70;81.70;;;;;;4955357;28;20322;-49
2021/06/29 11:27:08;;;;;;;1.38;0.90;;;26.80;81.30;;;;;;4954643;28;20619;-50
2021/06/29 11:29:41;;;;;;;7.25;1.20;;;26.80;81.40;;;;;;4955549;28;20294;-48
2021/06/29 11:32:29;;;;;;;51.95;4.85;;;26.90;81.60;;;;;;5037633;23;20310;-44
2021/06/29 11:35:38;;;;;;;4.60;1.92;;;27.00;80.20;;;;;;4954333;28;20227;-49
2021/06/29 11:38:10;;;;;;;3.30;1.73;;;27.10;81.10;;;;;;4955314;28;20218;-51
2021/06/29 11:40:38;;;;;;;2.55;1.00;;;27.20;80.80;;;;;;4955161;28;20318;-52
2021/06/29 11:43:08;;;;;;;1.42;1.33;;;27.20;80.40;;;;;;4955235;28;20211;-45
2021/06/29 11:45:36;;;;;;;2.15;1.40;;;27.20;80.30;;;;;;4954939;28;20216;-49
2021/06/29 11:48:04;;;;;;;9.73;1.88;;;27.10;80.60;;;;;;4954984;28;20211;-46
2021/06/29 11:50:42;;;;;;;1.58;1.20;;;27.10;80.60;;;;;;4955047;28;20207;-46
2021/06/29 11:53:23;;;;;;;5.32;1.30;;;27.00;80.10;;;;;;4954825;28;20302;-48
2021/06/29 11:55:51;;;;;;;2.65;1.40;;;26.90;81.20;;;;;;4954759;28;20298;-48
2021/06/29 11:58:19;;;;;;;31.80;3.97;;;26.90;81.50;;;;;;4954976;28;20239;-47
2021/06/29 12:00:47;;;;;;;5.03;1.25;;;26.90;81.70;;;;;;4954827;28;20321;-47
2021/06/29 12:03:19;;;;;;;72.03;7.07;;;27.00;81.20;;;;;;4954610;28;20219;-46
2021/06/29 12:05:47;;;;;;;10.55;1.95;;;27.00;79.40;;;;;;4954586;28;20243;-46
2021/06/29 12:08:15;;;;;;;2.00;1.40;;;26.90;79.20;;;;;;4954523;28;20294;-46
2021/06/29 12:10:47;;;;;;;2.58;1.35;;;27.00;79.70;;;;;;4954759;28;20214;-49
2021/06/29 12:13:16;;;;;;;2.42;1.30;;;26.90;80.20;;;;;;4954610;28;20254;-50
2021/06/29 12:15:45;;;;;;;45.63;6.72;;;27.00;80.40;;;;;;4954575;28;20218;-51
2021/06/29 12:18:15;;;;;;;3.20;1.80;;;27.00;80.60;;;;;;4954504;28;20226;-45
2021/06/29 12:20:47;;;;;;;1.70;1.60;;;27.00;81.10;;;;;;4954330;28;20322;-47
2021/06/29 12:23:17;;;;;;;1.73;1.40;;;27.10;81.60;;;;;;4954405;28;20663;-48
2021/06/29 12:25:49;;;;;;;9.18;2.60;;;27.10;81.90;;;;;;4954465;28;20750;-46
2021/06/29 12:28:19;;;;;;;4.63;1.90;;;27.20;82.40;;;;;;4954431;28;20361;-46
2021/06/29 12:30:48;;;;;;;14.40;3.22;;;27.20;82.80;;;;;;4954006;28;20298;-47
2021/06/29 12:33:22;;;;;;;6.40;2.60;;;27.30;83.00;;;;;;4953986;28;20273;-47
2021/06/29 12:35:52;;;;;;;23.05;4.18;;;27.30;82.90;;;;;;4954353;28;20215;-48
2021/06/29 12:38:23;;;;;;;2.25;1.77;;;27.30;82.60;;;;;;4954573;28;20274;-46
2021/06/29 12:40:55;;;;;;;10.75;2.13;;;27.20;82.70;;;;;;4954311;28;20687;-49
2021/06/29 12:43:29;;;;;;;18.45;3.42;;;27.20;82.20;;;;;;4954435;28;20240;-52
2021/06/29 12:45:58;;;;;;;2.97;1.15;;;27.20;82.40;;;;;;4953987;28;20246;-50
2021/06/29 12:48:26;;;;;;;11.07;2.70;;;27.30;82.50;;;;;;4953945;28;20802;-49
2021/06/29 12:51:01;;;;;;;3.95;1.42;;;27.30;82.60;;;;;;4954441;28;20203;-50
2021/06/29 12:53:29;;;;;;;17.40;2.92;;;27.30;81.70;;;;;;4954525;28;20244;-48
2021/06/29 12:56:16;;;;;;;5.32;1.80;;;27.40;81.10;;;;;;4954354;28;20251;-48
2021/06/29 12:58:47;;;;;;;3.40;1.80;;;27.40;80.70;;;;;;4954119;28;20575;-55